Time;durP1;ratioP1;P1;durP2;ratioP2;P2;SDS_P1;SDS_P2;PMS_P1;PMS_P2;Temp;Humidity;BMP_temperature;BMP_pressure;BME280_temperature;BME280_humidity;BME280_pressure;Samples;Min_cycle;Max_cycle;Signal;HPM_P1;HPM_P2
2021/10/14 00:01:11;;;;;;;10.73;4.80;;;;;;;;;;5011934;28;20410;-50
2021/10/14 00:03:37;;;;;;;5.73;4.30;;;;;;;;;;5011672;28;20896;-48
2021/10/14 00:06:03;;;;;;;8.33;4.37;;;;;;;;;;5011819;28;20411;-47
2021/10/14 00:08:29;;;;;;;15.13;4.87;;;;;;;;;;5011726;28;20429;-48
2021/10/14 00:10:55;;;;;;;5.63;4.20;;;;;;;;;;5011863;28;21028;-51
2021/10/14 00:13:21;;;;;;;7.07;4.67;;;;;;;;;;5011554;28;20937;-50
2021/10/14 00:15:47;;;;;;;6.70;4.10;;;;;;;;;;5011772;28;20458;-50
2021/10/14 00:18:13;;;;;;;17.70;4.00;;;;;;;;;;5011670;28;20419;-50
2021/10/14 00:20:39;;;;;;;7.37;4.10;;;;;;;;;;5011722;28;20416;-50
2021/10/14 00:23:05;;;;;;;4.50;3.67;;;;;;;;;;5011748;28;20419;-49
2021/10/14 00:25:31;;;;;;;11.57;3.40;;;;;;;;;;5011781;28;20411;-50
2021/10/14 00:27:57;;;;;;;7.53;2.80;;;;;;;;;;5011445;28;20433;-50
2021/10/14 00:30:23;;;;;;;9.40;3.80;;;;;;;;;;5011558;28;20550;-48
2021/10/14 00:32:49;;;;;;;7.33;4.00;;;;;;;;;;5011523;28;20877;-50
2021/10/14 00:35:15;;;;;;;3.70;3.00;;;;;;;;;;5011619;28;20416;-50
2021/10/14 00:37:41;;;;;;;5.63;2.90;;;;;;;;;;5011523;28;20511;-48
2021/10/14 00:40:07;;;;;;;4.27;3.10;;;;;;;;;;5013354;28;20404;-49
2021/10/14 00:42:33;;;;;;;7.13;3.30;;;;;;;;;;5014957;28;20839;-49
2021/10/14 00:45:00;;;;;;;3.27;2.83;;;;;;;;;;5015223;28;20487;-47
2021/10/14 00:47:27;;;;;;;6.83;3.07;;;;;;;;;;5014937;28;20784;-47
2021/10/14 00:49:54;;;;;;;7.10;3.80;;;;;;;;;;5015059;28;20419;-50
2021/10/14 00:52:20;;;;;;;6.20;3.50;;;;;;;;;;5014714;28;20534;-48
2021/10/14 00:54:47;;;;;;;10.53;3.30;;;;;;;;;;5014942;28;20490;-48
2021/10/14 00:57:14;;;;;;;6.90;3.53;;;;;;;;;;5014767;28;20807;-50
2021/10/14 00:59:40;;;;;;;5.00;3.57;;;;;;;;;;5014867;28;20950;-50
2021/10/14 01:02:06;;;;;;;10.33;4.33;;;;;;;;;;5013887;28;20409;-50
2021/10/14 01:04:32;;;;;;;10.43;3.60;;;;;;;;;;5014108;28;20442;-49
2021/10/14 01:06:58;;;;;;;3.90;3.53;;;;;;;;;;5014419;28;20454;-50
2021/10/14 01:09:24;;;;;;;7.40;4.47;;;;;;;;;;5014671;28;20435;-49
2021/10/14 01:11:50;;;;;;;9.83;4.80;;;;;;;;;;5014268;28;20449;-49
2021/10/14 01:14:16;;;;;;;6.60;4.80;;;;;;;;;;5014828;28;20423;-49
2021/10/14 01:16:43;;;;;;;12.23;5.47;;;;;;;;;;5014420;28;20801;-49
2021/10/14 01:19:10;;;;;;;10.63;5.70;;;;;;;;;;5014455;28;20480;-51
2021/10/14 01:21:36;;;;;;;13.03;6.23;;;;;;;;;;5014522;28;20450;-49
2021/10/14 01:24:03;;;;;;;9.33;6.10;;;;;;;;;;5014251;28;20414;-49
2021/10/14 01:26:29;;;;;;;14.43;7.43;;;;;;;;;;5014300;28;20415;-49
2021/10/14 01:28:55;;;;;;;18.17;6.23;;;;;;;;;;5014342;28;20430;-49
2021/10/14 01:31:24;;;;;;;10.93;5.70;;;;;;;;;;5014415;28;20523;-49
2021/10/14 01:33:51;;;;;;;9.33;6.20;;;;;;;;;;5014067;28;20498;-49
2021/10/14 01:36:17;;;;;;;11.67;7.30;;;;;;;;;;5014209;28;20973;-51
2021/10/14 01:38:43;;;;;;;18.17;8.63;;;;;;;;;;5014080;28;20981;-49
2021/10/14 01:41:09;;;;;;;16.73;6.20;;;;;;;;;;5014379;28;20407;-50
2021/10/14 01:43:35;;;;;;;11.60;6.80;;;;;;;;;;5014048;28;20438;-49
2021/10/14 01:46:01;;;;;;;15.00;7.27;;;;;;;;;;5014141;28;20435;-49
2021/10/14 01:48:28;;;;;;;18.37;7.10;;;;;;;;;;5013859;28;20509;-50
2021/10/14 01:50:54;;;;;;;20.30;7.30;;;;;;;;;;5013244;28;20454;-47
2021/10/14 01:53:20;;;;;;;10.23;6.17;;;;;;;;;;5013622;28;20938;-47
2021/10/14 01:55:46;;;;;;;10.07;6.60;;;;;;;;;;5013873;28;20701;-49
2021/10/14 01:58:12;;;;;;;13.40;6.97;;;;;;;;;;5013612;28;20935;-50
2021/10/14 02:00:38;;;;;;;14.13;7.43;;;;;;;;;;5013895;28;20458;-50
2021/10/14 02:03:04;;;;;;;19.80;8.77;;;;;;;;;;5013549;28;20426;-50
2021/10/14 02:05:31;;;;;;;18.13;8.37;;;;;;;;;;5013658;28;20435;-50
2021/10/14 02:07:57;;;;;;;12.60;8.13;;;;;;;;;;5013447;28;20427;-50
2021/10/14 02:10:23;;;;;;;9.07;8.03;;;;;;;;;;5013559;28;20400;-49
2021/10/14 02:12:49;;;;;;;12.60;8.73;;;;;;;;;;5013392;28;20406;-50
2021/10/14 02:15:15;;;;;;;14.30;9.40;;;;;;;;;;5013396;28;20887;-50
2021/10/14 02:17:41;;;;;;;20.60;9.77;;;;;;;;;;5013292;28;20967;-50
2021/10/14 02:20:08;;;;;;;16.93;10.03;;;;;;;;;;5013383;28;20494;-50
2021/10/14 02:22:34;;;;;;;20.00;10.00;;;;;;;;;;5012982;28;20438;-48
2021/10/14 02:25:00;;;;;;;28.30;11.23;;;;;;;;;;5013283;28;20411;-47
2021/10/14 02:27:26;;;;;;;20.13;11.43;;;;;;;;;;5013209;28;20447;-50
2021/10/14 02:29:52;;;;;;;19.23;10.70;;;;;;;;;;5013097;28;20423;-49
2021/10/14 02:32:18;;;;;;;16.30;10.23;;;;;;;;;;5012948;28;20450;-49
2021/10/14 02:34:44;;;;;;;20.60;11.40;;;;;;;;;;5013151;28;20410;-48
2021/10/14 02:37:10;;;;;;;21.50;10.83;;;;;;;;;;5012884;28;20597;-47
2021/10/14 02:39:36;;;;;;;14.90;9.30;;;;;;;;;;5012986;28;20926;-49
2021/10/14 02:42:02;;;;;;;13.63;9.60;;;;;;;;;;5012739;28;20817;-49
2021/10/14 02:44:28;;;;;;;17.77;11.90;;;;;;;;;;5013048;28;20441;-49
2021/10/14 02:46:54;;;;;;;14.97;10.37;;;;;;;;;;5012824;28;20769;-49
2021/10/14 02:49:20;;;;;;;26.20;11.10;;;;;;;;;;5012756;28;20427;-49
2021/10/14 02:51:46;;;;;;;19.50;10.80;;;;;;;;;;5012628;28;20454;-50
2021/10/14 02:54:12;;;;;;;22.67;11.63;;;;;;;;;;5012918;28;20408;-50
2021/10/14 02:56:38;;;;;;;23.77;12.17;;;;;;;;;;5012831;28;20412;-49
2021/10/14 02:59:04;;;;;;;18.27;12.70;;;;;;;;;;5012515;28;20855;-49
2021/10/14 03:01:30;;;;;;;17.03;12.20;;;;;;;;;;5012619;28;20848;-48
2021/10/14 03:03:56;;;;;;;21.00;11.83;;;;;;;;;;5011582;28;20403;-49
2021/10/14 03:06:22;;;;;;;17.50;14.03;;;;;;;;;;5012439;28;20487;-47
2021/10/14 03:08:48;;;;;;;19.73;12.67;;;;;;;;;;5012522;28;20542;-50
2021/10/14 03:11:14;;;;;;;22.20;13.43;;;;;;;;;;5012649;28;20538;-50
2021/10/14 03:13:40;;;;;;;17.53;11.77;;;;;;;;;;5012225;28;20396;-50
2021/10/14 03:16:06;;;;;;;18.53;12.60;;;;;;;;;;5012544;28;20403;-49
2021/10/14 03:18:33;;;;;;;17.87;12.77;;;;;;;;;;5012265;28;20922;-49
2021/10/14 03:20:59;;;;;;;19.20;12.87;;;;;;;;;;5012344;28;20404;-50
2021/10/14 03:23:25;;;;;;;25.13;14.90;;;;;;;;;;5012154;28;20483;-50
2021/10/14 03:25:51;;;;;;;22.47;12.80;;;;;;;;;;5012333;28;20925;-50
2021/10/14 03:28:17;;;;;;;22.27;13.00;;;;;;;;;;5012097;28;20431;-50
2021/10/14 03:30:43;;;;;;;17.37;12.90;;;;;;;;;;5012176;28;20486;-49
2021/10/14 03:33:09;;;;;;;22.17;13.00;;;;;;;;;;5012134;28;20418;-50
2021/10/14 03:35:35;;;;;;;19.17;12.90;;;;;;;;;;5012162;28;20956;-49
2021/10/14 03:38:01;;;;;;;19.00;12.40;;;;;;;;;;5012062;28;20419;-48
2021/10/14 03:40:27;;;;;;;18.70;13.17;;;;;;;;;;5012149;28;20436;-48
2021/10/14 03:42:53;;;;;;;17.60;12.70;;;;;;;;;;5011916;28;20481;-47
2021/10/14 03:45:19;;;;;;;23.60;12.97;;;;;;;;;;5012160;28;20454;-46
2021/10/14 03:47:45;;;;;;;21.27;12.60;;;;;;;;;;5011942;28;20414;-50
2021/10/14 03:50:11;;;;;;;20.40;13.47;;;;;;;;;;5011972;28;20407;-50
2021/10/14 03:52:37;;;;;;;16.20;12.63;;;;;;;;;;5011706;28;20458;-50
2021/10/14 03:55:04;;;;;;;18.50;12.70;;;;;;;;;;5012264;28;21031;-49
2021/10/14 03:57:29;;;;;;;15.87;12.50;;;;;;;;;;5011862;28;20786;-50
2021/10/14 03:59:55;;;;;;;21.17;12.40;;;;;;;;;;5011838;28;20435;-50
2021/10/14 04:02:21;;;;;;;18.63;12.50;;;;;;;;;;5011735;28;20411;-49
2021/10/14 04:04:47;;;;;;;15.90;11.83;;;;;;;;;;5011835;28;20962;-49
2021/10/14 04:07:13;;;;;;;16.07;11.20;;;;;;;;;;5011845;28;20466;-50
2021/10/14 04:09:39;;;;;;;18.60;12.20;;;;;;;;;;5011948;28;20423;-50
2021/10/14 04:12:05;;;;;;;24.67;11.87;;;;;;;;;;5011611;28;20454;-49
2021/10/14 04:14:31;;;;;;;15.00;12.67;;;;;;;;;;5012784;28;20407;-47
2021/10/14 04:16:57;;;;;;;19.90;13.23;;;;;;;;;;5015635;28;20403;-48
2021/10/14 04:19:23;;;;;;;19.07;14.30;;;;;;;;;;5015552;28;20422;-47
2021/10/14 04:21:49;;;;;;;19.80;14.20;;;;;;;;;;5015432;28;20399;-49
2021/10/14 04:24:16;;;;;;;20.30;14.00;;;;;;;;;;5015607;28;20770;-50
2021/10/14 04:26:42;;;;;;;19.33;14.70;;;;;;;;;;5015400;28;20411;-49
2021/10/14 04:29:08;;;;;;;26.03;15.93;;;;;;;;;;5015390;28;20462;-49
2021/10/14 04:31:34;;;;;;;24.03;14.17;;;;;;;;;;5015285;28;20486;-48
2021/10/14 04:34:01;;;;;;;26.00;16.30;;;;;;;;;;5015166;28;20498;-49
2021/10/14 04:36:27;;;;;;;23.40;16.30;;;;;;;;;;5015237;28;20410;-49
2021/10/14 04:38:53;;;;;;;29.27;17.60;;;;;;;;;;5015249;28;20422;-48
2021/10/14 04:41:19;;;;;;;28.40;17.40;;;;;;;;;;5015165;28;20407;-47
2021/10/14 04:43:45;;;;;;;29.67;20.37;;;;;;;;;;5014966;28;20403;-48
2021/10/14 04:46:11;;;;;;;30.60;18.93;;;;;;;;;;5015145;28;20776;-48
2021/10/14 04:48:37;;;;;;;28.90;17.70;;;;;;;;;;5014921;28;20419;-49
2021/10/14 04:51:03;;;;;;;31.17;18.33;;;;;;;;;;5015032;28;20454;-47
2021/10/14 04:53:29;;;;;;;22.87;16.30;;;;;;;;;;5014827;28;20409;-50
2021/10/14 04:55:55;;;;;;;27.37;18.17;;;;;;;;;;5015108;28;20447;-49
2021/10/14 04:58:21;;;;;;;30.27;19.07;;;;;;;;;;5014762;28;20419;-50
2021/10/14 05:00:47;;;;;;;36.13;22.70;;;;;;;;;;5014838;28;20469;-48
2021/10/14 05:03:13;;;;;;;41.23;22.13;;;;;;;;;;5014611;28;20403;-49
2021/10/14 05:05:39;;;;;;;40.77;22.90;;;;;;;;;;5014828;28;20434;-50
2021/10/14 05:08:06;;;;;;;36.73;21.10;;;;;;;;;;5014842;28;20434;-49
2021/10/14 05:10:32;;;;;;;50.07;22.70;;;;;;;;;;5014597;28;20413;-47
2021/10/14 05:12:58;;;;;;;41.07;22.23;;;;;;;;;;5014508;28;20909;-50
2021/10/14 05:15:24;;;;;;;42.03;24.63;;;;;;;;;;5014514;28;20411;-49
2021/10/14 05:17:50;;;;;;;49.23;26.27;;;;;;;;;;5014470;28;20408;-49
2021/10/14 05:20:16;;;;;;;47.57;24.83;;;;;;;;;;5014519;28;20441;-48
2021/10/14 05:22:42;;;;;;;42.70;25.37;;;;;;;;;;5014277;28;20445;-50
2021/10/14 05:25:09;;;;;;;50.23;27.30;;;;;;;;;;5014449;28;20437;-48
2021/10/14 05:27:35;;;;;;;49.07;28.93;;;;;;;;;;5013394;28;20407;-47
2021/10/14 05:30:01;;;;;;;57.33;28.40;;;;;;;;;;5014278;28;20410;-47
2021/10/14 05:32:27;;;;;;;52.23;30.00;;;;;;;;;;5014043;28;20439;-49
2021/10/14 05:34:53;;;;;;;62.20;29.43;;;;;;;;;;5014304;28;20403;-50
2021/10/14 05:37:19;;;;;;;61.17;28.50;;;;;;;;;;5014159;28;20925;-50
2021/10/14 05:39:45;;;;;;;47.33;25.80;;;;;;;;;;5014048;28;20427;-49
2021/10/14 05:42:11;;;;;;;55.87;27.50;;;;;;;;;;5014082;28;20409;-49
2021/10/14 05:44:37;;;;;;;57.30;27.50;;;;;;;;;;5014015;28;20502;-50
2021/10/14 05:47:03;;;;;;;62.43;27.77;;;;;;;;;;5013908;28;20399;-47
2021/10/14 05:49:29;;;;;;;54.63;29.37;;;;;;;;;;5013922;28;20419;-48
2021/10/14 05:51:55;;;;;;;49.10;27.27;;;;;;;;;;5013770;28;20997;-48
2021/10/14 05:54:21;;;;;;;56.57;27.03;;;;;;;;;;5013841;28;20932;-50
2021/10/14 05:56:47;;;;;;;61.23;28.30;;;;;;;;;;5013778;28;20408;-50
2021/10/14 05:59:13;;;;;;;54.30;26.87;;;;;;;;;;5014229;28;21013;-49
2021/10/14 06:01:39;;;;;;;58.23;26.20;;;;;;;;;;5013644;28;20907;-49
2021/10/14 06:04:05;;;;;;;60.33;28.97;;;;;;;;;;5013584;28;20403;-49
2021/10/14 06:06:31;;;;;;;47.33;27.40;;;;;;;;;;5013541;28;20800;-50
2021/10/14 06:08:57;;;;;;;53.20;27.43;;;;;;;;;;5013591;28;20427;-50
2021/10/14 06:11:23;;;;;;;62.50;29.27;;;;;;;;;;5013315;28;20500;-50
2021/10/14 06:13:49;;;;;;;57.80;29.37;;;;;;;;;;5013163;28;20407;-48
2021/10/14 06:16:15;;;;;;;52.43;28.37;;;;;;;;;;5013185;28;20395;-49
2021/10/14 06:18:41;;;;;;;53.40;30.07;;;;;;;;;;5012077;28;20931;-50
2021/10/14 06:21:07;;;;;;;61.90;29.87;;;;;;;;;;5013215;28;20789;-47
2021/10/14 06:23:33;;;;;;;56.00;28.40;;;;;;;;;;5012930;28;20407;-48
2021/10/14 06:25:59;;;;;;;57.63;28.63;;;;;;;;;;5013082;28;20407;-47
2021/10/14 06:28:25;;;;;;;50.30;30.30;;;;;;;;;;5013009;28;20489;-47
2021/10/14 06:30:52;;;;;;;48.47;26.23;;;;;;;;;;5013060;28;20450;-50
2021/10/14 06:33:18;;;;;;;55.97;28.60;;;;;;;;;;5012837;28;20439;-49
2021/10/14 06:35:44;;;;;;;55.90;28.23;;;;;;;;;;5013073;28;20755;-50
2021/10/14 06:38:10;;;;;;;54.47;30.13;;;;;;;;;;5012636;28;20437;-49
2021/10/14 06:40:36;;;;;;;51.17;30.00;;;;;;;;;;5012735;28;20404;-47
2021/10/14 06:43:02;;;;;;;44.93;24.57;;;;;;;;;;5011409;28;20449;-47
2021/10/14 06:45:28;;;;;;;48.87;26.83;;;;;;;;;;5012408;28;20486;-50
2021/10/14 06:47:54;;;;;;;40.83;25.20;;;;;;;;;;5012672;28;20400;-49
2021/10/14 06:50:20;;;;;;;60.05;26.85;;;;;;;;;;5012673;28;20411;-49
2021/10/14 06:52:46;;;;;;;51.20;26.60;;;;;;;;;;5012263;28;20426;-50
2021/10/14 06:55:12;;;;;;;46.70;25.40;;;;;;;;;;5012407;28;20776;-49
2021/10/14 06:57:38;;;;;;;44.33;24.97;;;;;;;;;;5011090;28;20449;-49
2021/10/14 07:00:05;;;;;;;45.93;25.60;;;;;;;;;;5012635;28;20431;-50
2021/10/14 07:02:31;;;;;;;51.43;25.73;;;;;;;;;;5012457;28;20895;-50
2021/10/14 07:04:57;;;;;;;59.43;28.30;;;;;;;;;;5012443;28;20442;-49
2021/10/14 07:07:23;;;;;;;51.90;26.67;;;;;;;;;;5012448;28;20415;-48
2021/10/14 07:09:49;;;;;;;44.77;25.03;;;;;;;;;;5012516;28;20423;-47
2021/10/14 07:12:15;;;;;;;47.80;27.10;;;;;;;;;;5012105;28;20459;-49
2021/10/14 07:14:42;;;;;;;40.07;24.20;;;;;;;;;;5012459;28;20411;-48
2021/10/14 07:17:08;;;;;;;61.60;25.50;;;;;;;;;;5012432;28;20407;-50
2021/10/14 07:19:37;;;;;;;42.73;23.87;;;;;;;;;;5012390;28;20518;-49
2021/10/14 07:22:04;;;;;;;46.53;25.10;;;;;;;;;;5012106;28;20461;-49
2021/10/14 07:24:30;;;;;;;48.83;24.13;;;;;;;;;;5012313;28;20422;-49
2021/10/14 07:26:57;;;;;;;45.20;24.40;;;;;;;;;;5012091;28;20446;-49
2021/10/14 07:29:23;;;;;;;40.87;23.03;;;;;;;;;;5012326;28;20628;-49
2021/10/14 07:31:49;;;;;;;39.00;24.23;;;;;;;;;;5012086;28;20447;-49
2021/10/14 07:34:15;;;;;;;41.40;22.93;;;;;;;;;;5012243;28;20400;-50
2021/10/14 07:36:41;;;;;;;37.33;22.53;;;;;;;;;;5012129;28;20912;-50
2021/10/14 07:39:07;;;;;;;40.47;21.27;;;;;;;;;;5012014;28;20414;-49
2021/10/14 07:41:33;;;;;;;39.20;21.77;;;;;;;;;;5012316;28;20404;-48
2021/10/14 07:44:00;;;;;;;36.83;20.97;;;;;;;;;;5011447;28;20502;-49
2021/10/14 07:46:26;;;;;;;34.27;19.97;;;;;;;;;;5012090;28;20490;-50
2021/10/14 07:48:52;;;;;;;38.10;22.20;;;;;;;;;;5011736;28;20872;-49
2021/10/14 07:51:18;;;;;;;37.87;22.37;;;;;;;;;;5018541;28;20454;-49
2021/10/14 07:53:44;;;;;;;32.57;17.27;;;;;;;;;;5018272;28;20879;-49
2021/10/14 07:56:10;;;;;;;36.13;20.10;;;;;;;;;;5018420;28;20437;-50
2021/10/14 07:58:36;;;;;;;31.37;19.73;;;;;;;;;;5018179;28;20469;-50
2021/10/14 08:01:02;;;;;;;34.57;19.90;;;;;;;;;;5017158;28;20423;-48
2021/10/14 08:03:28;;;;;;;32.90;19.13;;;;;;;;;;5018121;28;20413;-49
2021/10/14 08:05:54;;;;;;;43.30;19.83;;;;;;;;;;5018352;28;20495;-47
2021/10/14 08:08:20;;;;;;;30.50;20.27;;;;;;;;;;5018133;28;20419;-47
2021/10/14 08:10:46;;;;;;;34.70;20.17;;;;;;;;;;5018288;28;20943;-47
2021/10/14 08:13:16;;;;;;;41.80;21.60;;;;;;;;;;5018195;28;20403;-48
2021/10/14 08:15:42;;;;;;;44.33;23.63;;;;;;;;;;5018332;28;20813;-50
2021/10/14 08:18:08;;;;;;;40.33;22.10;;;;;;;;;;5018163;28;20423;-47
2021/10/14 08:20:35;;;;;;;38.80;21.40;;;;;;;;;;5018246;28;20486;-51
2021/10/14 08:23:01;;;;;;;48.70;22.77;;;;;;;;;;5018008;28;20407;-49
2021/10/14 08:25:27;;;;;;;41.27;23.03;;;;;;;;;;5016851;28;20493;-49
2021/10/14 08:27:53;;;;;;;39.87;22.70;;;;;;;;;;5017993;28;20539;-49
2021/10/14 08:30:19;;;;;;;38.30;20.87;;;;;;;;;;5018234;28;20486;-48
2021/10/14 08:32:46;;;;;;;44.37;23.57;;;;;;;;;;5017779;28;20454;-51
2021/10/14 08:35:12;;;;;;;50.53;25.00;;;;;;;;;;5018159;28;20458;-47
2021/10/14 08:37:38;;;;;;;48.80;26.30;;;;;;;;;;5017844;28;20499;-49
2021/10/14 08:40:05;;;;;;;52.43;26.37;;;;;;;;;;5018254;28;20405;-49
2021/10/14 08:42:31;;;;;;;49.30;25.20;;;;;;;;;;5018210;28;20399;-50
2021/10/14 08:45:00;;;;;;;42.07;24.20;;;;;;;;;;5018023;28;20601;-50
2021/10/14 08:47:26;;;;;;;47.47;24.83;;;;;;;;;;5018030;28;20439;-50
2021/10/14 08:49:55;;;;;;;47.77;27.07;;;;;;;;;;5017854;28;20941;-51
2021/10/14 08:52:21;;;;;;;59.63;28.43;;;;;;;;;;5017542;28;20451;-48
2021/10/14 08:54:47;;;;;;;52.60;26.70;;;;;;;;;;5018035;28;20461;-49
2021/10/14 08:57:13;;;;;;;61.23;29.27;;;;;;;;;;5017739;28;20418;-47
2021/10/14 08:59:39;;;;;;;56.00;26.83;;;;;;;;;;5017703;28;20435;-50
2021/10/14 09:02:14;;;;;;;53.00;27.60;;;;;;;;;;5015206;28;20419;-50
2021/10/14 09:04:40;;;;;;;54.00;25.80;;;;;;;;;;5014630;28;20399;-49
2021/10/14 09:07:10;;;;;;;56.73;27.63;;;;;;;;;;5014632;28;20400;-50
2021/10/14 09:09:37;;;;;;;51.13;26.97;;;;;;;;;;5014631;28;20462;-47
2021/10/14 09:12:04;;;;;;;49.23;27.10;;;;;;;;;;5014359;28;20452;-50
2021/10/14 09:14:30;;;;;;;53.60;27.47;;;;;;;;;;5014638;28;20774;-50
2021/10/14 09:16:56;;;;;;;49.50;26.53;;;;;;;;;;5014497;28;20404;-49
2021/10/14 09:19:23;;;;;;;49.37;25.43;;;;;;;;;;5014223;28;21009;-50
2021/10/14 09:21:50;;;;;;;49.13;25.43;;;;;;;;;;5014299;28;20411;-49
2021/10/14 09:24:30;;;;;;;45.77;24.37;;;;;;;;;;5014417;28;20413;-50
2021/10/14 09:26:57;;;;;;;42.87;23.03;;;;;;;;;;5014246;28;20441;-50
2021/10/14 09:29:25;;;;;;;39.03;24.13;;;;;;;;;;5014686;28;20915;-50
2021/10/14 09:31:51;;;;;;;42.07;23.30;;;;;;;;;;5012545;28;20459;-50
2021/10/14 09:34:23;;;;;;;45.83;22.47;;;;;;;;;;5014149;28;20432;-50
2021/10/14 09:36:49;;;;;;;42.90;23.10;;;;;;;;;;5014098;28;20907;-50
2021/10/14 09:39:15;;;;;;;39.43;21.87;;;;;;;;;;5014118;28;20432;-50
2021/10/14 09:41:42;;;;;;;38.07;23.73;;;;;;;;;;5013960;28;20409;-49
2021/10/14 09:44:13;;;;;;;42.83;23.07;;;;;;;;;;5013819;28;20403;-48
2021/10/14 09:46:41;;;;;;;41.87;22.83;;;;;;;;;;5013906;28;20900;-49
2021/10/14 09:49:08;;;;;;;45.27;26.40;;;;;;;;;;5014003;28;20472;-48
2021/10/14 09:51:34;;;;;;;42.23;24.80;;;;;;;;;;5010486;28;20602;-51
2021/10/14 09:54:00;;;;;;;49.37;25.77;;;;;;;;;;5012256;28;20447;-49
2021/10/14 09:56:29;;;;;;;44.90;26.87;;;;;;;;;;5013972;28;20492;-50
2021/10/14 09:58:57;;;;;;;44.30;25.10;;;;;;;;;;5013551;28;20519;-49
2021/10/14 10:01:24;;;;;;;54.80;25.50;;;;;;;;;;5013687;28;20408;-50
2021/10/14 10:03:50;;;;;;;58.47;28.43;;;;;;;;;;5013890;28;20486;-49
2021/10/14 10:06:17;;;;;;;47.30;26.13;;;;;;;;;;5014209;28;20414;-50
2021/10/14 10:08:43;;;;;;;50.93;26.80;;;;;;;;;;5013454;28;20771;-47
2021/10/14 10:11:14;;;;;;;51.90;28.33;;;;;;;;;;5013470;28;21026;-50
2021/10/14 10:13:44;;;;;;;49.50;26.37;;;;;;;;;;5012688;28;20405;-50
2021/10/14 10:16:16;;;;;;;58.67;29.30;;;;;;;;;;5013405;28;20450;-49
2021/10/14 10:18:43;;;;;;;58.30;30.67;;;;;;;;;;5013352;28;20510;-50
2021/10/14 10:21:10;;;;;;;55.03;29.70;;;;;;;;;;5013767;28;20422;-44
2021/10/14 10:23:52;;;;;;;61.97;30.30;;;;;;;;;;5012907;28;20403;-44
2021/10/14 10:26:35;;;;;;;53.40;28.47;;;;;;;;;;5013302;28;20498;-46
2021/10/14 10:29:24;;;;;;;50.83;28.97;;;;;;;;;;5013298;28;20492;-45
2021/10/14 10:31:56;;;;;;;56.40;30.20;;;;;;;;;;5012933;28;20529;-44
2021/10/14 10:37:24;;;;;;;62.03;29.00;;;;;;;;;;5013281;28;20403;-43
2021/10/14 10:40:03;;;;;;;48.97;27.43;;;;;;;;;;5012948;28;20451;-47
2021/10/14 10:42:32;;;;;;;69.10;29.57;;;;;;;;;;5012764;28;20451;-43
2021/10/14 10:45:07;;;;;;;52.97;29.30;;;;;;;;;;5012793;28;20402;-44
2021/10/14 10:47:36;;;;;;;56.37;28.87;;;;;;;;;;5012775;28;20761;-44
2021/10/14 10:50:03;;;;;;;57.77;27.90;;;;;;;;;;5012987;28;20408;-44
2021/10/14 10:52:32;;;;;;;52.60;30.10;;;;;;;;;;5012494;28;20542;-43
2021/10/14 10:54:59;;;;;;;52.57;30.70;;;;;;;;;;5012667;28;20410;-43
2021/10/14 10:57:44;;;;;;;42.03;27.53;;;;;;;;;;5012538;28;20455;-44
2021/10/14 11:00:10;;;;;;;59.57;28.93;;;;;;;;;;5012646;28;20429;-45
2021/10/14 11:02:36;;;;;;;51.20;29.23;;;;;;;;;;5012396;28;20413;-44
2021/10/14 11:05:02;;;;;;;43.60;28.00;;;;;;;;;;5012514;28;20461;-47
2021/10/14 11:07:28;;;;;;;50.33;28.20;;;;;;;;;;5012407;28;20892;-47
2021/10/14 11:09:54;;;;;;;53.20;29.27;;;;;;;;;;5012351;28;20432;-48
2021/10/14 11:12:20;;;;;;;52.70;28.20;;;;;;;;;;5012177;28;20449;-44
2021/10/14 11:14:46;;;;;;;47.80;27.37;;;;;;;;;;5012455;28;20888;-44
2021/10/14 11:17:16;;;;;;;43.97;24.90;;;;;;;;;;5012237;28;20427;-43
2021/10/14 11:19:42;;;;;;;45.40;25.90;;;;;;;;;;5012281;28;20423;-44
2021/10/14 11:22:18;;;;;;;38.90;25.20;;;;;;;;;;5012197;28;20405;-44
2021/10/14 11:24:45;;;;;;;40.47;25.03;;;;;;;;;;5010272;28;20441;-44
2021/10/14 11:27:15;;;;;;;56.67;26.03;;;;;;;;;;5012189;28;20485;-44
2021/10/14 11:29:43;;;;;;;44.83;24.93;;;;;;;;;;5012436;28;20488;-44
2021/10/14 11:32:14;;;;;;;40.60;24.90;;;;;;;;;;5011805;28;20956;-43
2021/10/14 11:34:40;;;;;;;39.13;24.03;;;;;;;;;;5012177;28;20484;-45
2021/10/14 11:37:07;;;;;;;39.93;25.70;;;;;;;;;;5012149;28;20472;-44
2021/10/14 11:39:38;;;;;;;41.40;24.07;;;;;;;;;;5012077;28;20425;-44
2021/10/14 11:42:08;;;;;;;35.27;22.20;;;;;;;;;;5011931;28;20420;-44
2021/10/14 11:44:36;;;;;;;33.27;20.77;;;;;;;;;;5012090;28;20825;-44
2021/10/14 11:47:02;;;;;;;34.10;20.63;;;;;;;;;;5012026;28;20782;-45
2021/10/14 11:49:31;;;;;;;39.23;21.37;;;;;;;;;;5012098;28;20438;-44
2021/10/14 11:52:00;;;;;;;30.33;20.23;;;;;;;;;;5011947;28;20460;-44
2021/10/14 11:54:26;;;;;;;36.47;19.70;;;;;;;;;;5012364;28;20413;-48
2021/10/14 11:56:53;;;;;;;31.47;19.13;;;;;;;;;;5012022;28;20478;-46
2021/10/14 11:59:20;;;;;;;32.60;19.63;;;;;;;;;;5011795;28;20459;-45
2021/10/14 12:01:46;;;;;;;26.53;18.37;;;;;;;;;;5011778;28;20425;-45
2021/10/14 12:04:15;;;;;;;26.83;18.23;;;;;;;;;;5011981;28;20401;-45
2021/10/14 12:06:41;;;;;;;22.33;16.40;;;;;;;;;;5010574;28;20413;-47
2021/10/14 12:09:07;;;;;;;25.47;18.13;;;;;;;;;;5011825;28;20919;-46
2021/10/14 12:11:33;;;;;;;25.17;17.40;;;;;;;;;;5011826;28;20453;-47
2021/10/14 12:14:01;;;;;;;22.87;15.13;;;;;;;;;;5011787;28;20417;-46
2021/10/14 12:16:28;;;;;;;25.40;16.70;;;;;;;;;;5011697;28;20407;-45
2021/10/14 12:18:54;;;;;;;22.10;15.07;;;;;;;;;;5011737;28;20980;-46
2021/10/14 12:21:30;;;;;;;24.40;16.10;;;;;;;;;;5011769;28;20416;-46
2021/10/14 12:24:07;;;;;;;20.90;14.73;;;;;;;;;;5010770;28;20894;-47
2021/10/14 12:26:37;;;;;;;22.20;16.53;;;;;;;;;;4994791;28;20401;-45
2021/10/14 12:29:21;;;;;;;20.93;14.50;;;;;;;;;;5005595;28;20495;-46
2021/10/14 12:31:47;;;;;;;20.90;15.10;;;;;;;;;;5011196;28;20479;-46
2021/10/14 12:34:14;;;;;;;23.97;14.47;;;;;;;;;;4998944;28;20466;-46
2021/10/14 12:36:46;;;;;;;17.83;13.53;;;;;;;;;;5014359;28;20489;-46
2021/10/14 12:39:39;;;;;;;21.80;14.20;;;;;;;;;;5012454;28;20511;-46
2021/10/14 12:42:06;;;;;;;16.20;12.33;;;;;;;;;;5015031;28;20397;-48
2021/10/14 12:44:45;;;;;;;23.07;13.33;;;;;;;;;;5015227;28;20960;-46
2021/10/14 12:47:23;;;;;;;17.20;11.40;;;;;;;;;;5015170;28;20488;-45
2021/10/14 12:52:39;;;;;;;17.97;12.37;;;;;;;;;;5015007;28;20485;-46
2021/10/14 12:55:07;;;;;;;18.03;11.23;;;;;;;;;;5015019;28;20403;-45
2021/10/14 12:57:33;;;;;;;16.23;11.93;;;;;;;;;;5014936;28;20371;-46
2021/10/14 12:59:59;;;;;;;19.03;11.20;;;;;;;;;;5014420;28;20473;-45
2021/10/14 13:02:25;;;;;;;16.17;11.13;;;;;;;;;;5014640;28;20411;-46
2021/10/14 13:04:51;;;;;;;15.13;10.90;;;;;;;;;;5015029;28;20908;-46
2021/10/14 13:07:17;;;;;;;13.70;10.50;;;;;;;;;;5013619;28;20505;-44
2021/10/14 13:09:43;;;;;;;14.70;10.50;;;;;;;;;;5013310;28;20526;-44
2021/10/14 13:12:09;;;;;;;24.97;10.63;;;;;;;;;;5014280;28;20511;-46
2021/10/14 13:14:39;;;;;;;15.80;11.47;;;;;;;;;;5014590;28;20403;-46
2021/10/14 13:17:05;;;;;;;14.43;10.73;;;;;;;;;;5014468;28;20876;-44
2021/10/14 13:19:31;;;;;;;21.67;10.33;;;;;;;;;;5014604;28;20776;-44
2021/10/14 13:21:57;;;;;;;14.63;9.60;;;;;;;;;;5014305;28;20415;-44
2021/10/14 13:24:23;;;;;;;14.20;10.03;;;;;;;;;;5014469;28;20417;-45
2021/10/14 13:26:51;;;;;;;13.87;10.37;;;;;;;;;;5014449;28;20411;-45
2021/10/14 13:29:17;;;;;;;14.20;10.70;;;;;;;;;;5014124;28;20429;-45
2021/10/14 13:31:43;;;;;;;12.87;10.00;;;;;;;;;;5014285;28;20451;-45
2021/10/14 13:34:13;;;;;;;12.90;10.50;;;;;;;;;;5014201;28;20412;-45
2021/10/14 13:36:40;;;;;;;17.97;11.40;;;;;;;;;;5014340;28;20400;-44
2021/10/14 13:39:13;;;;;;;14.70;11.10;;;;;;;;;;5012772;28;20427;-44
2021/10/14 13:41:38;;;;;;;16.40;9.40;;;;;;;;;;5008492;28;20427;-49
2021/10/14 13:44:09;;;;;;;17.97;11.67;;;;;;;;;;4993738;28;20412;-44
2021/10/14 13:46:35;;;;;;;17.80;10.43;;;;;;;;;;4993748;28;20412;-44
2021/10/14 13:49:01;;;;;;;18.77;12.20;;;;;;;;;;4994027;28;20404;-44
2021/10/14 13:51:29;;;;;;;18.10;10.03;;;;;;;;;;4994801;28;20456;-44
2021/10/14 13:53:55;;;;;;;15.97;10.17;;;;;;;;;;4993394;28;20440;-44
2021/10/14 13:56:21;;;;;;;15.33;9.87;;;;;;;;;;4993321;28;20841;-45
2021/10/14 13:58:48;;;;;;;12.10;10.50;;;;;;;;;;4993243;28;21001;-44
2021/10/14 14:01:16;;;;;;;18.87;11.20;;;;;;;;;;4993691;28;20416;-44
2021/10/14 14:03:43;;;;;;;16.00;10.53;;;;;;;;;;4994543;28;20411;-44
2021/10/14 14:06:09;;;;;;;12.93;10.50;;;;;;;;;;4994333;28;20842;-45
2021/10/14 14:08:36;;;;;;;15.67;10.30;;;;;;;;;;4993709;28;21024;-47
2021/10/14 14:11:02;;;;;;;16.23;11.00;;;;;;;;;;4993667;28;20462;-46
2021/10/14 14:13:28;;;;;;;12.90;9.33;;;;;;;;;;4994111;28;20422;-44
2021/10/14 14:15:54;;;;;;;17.03;10.37;;;;;;;;;;4993097;28;20792;-44
2021/10/14 14:18:20;;;;;;;18.80;9.63;;;;;;;;;;4994075;28;20435;-43
2021/10/14 14:20:48;;;;;;;13.70;8.90;;;;;;;;;;4992246;28;20404;-48
2021/10/14 14:23:14;;;;;;;17.63;9.93;;;;;;;;;;4993113;28;20428;-45
2021/10/14 14:25:41;;;;;;;13.70;9.93;;;;;;;;;;4992983;28;20415;-45